Reply To: Erste Wetterbesprechung im meteorologischen Frühling 2022

Home Forums Wetterturnierforum Erste Wetterbesprechung im meteorologischen Frühling 2022 Reply To: Erste Wetterbesprechung im meteorologischen Frühling 2022

#17413
nik
Participant

Hi,

habe Wv in Wien Schwechat auf 8 angepasst, wie es im METAR beobachtet wurde (LOWW 051120Z 01007KT 330V040 9999 -SHSN FEW032 SCT040 04/M03 Q1021 NOSIG) und im Synop die Niederschlagsspuren gemeldet wurden: https://www.ogimet.com/cgi-bin/gsynres?lang=en&ind=11036&decoded=yes&ndays=2&ano=2022&mes=03&day=05&hora=12

LG,
Nik